Time,TemperatureF,DewpointF,PressureIn,WindDirection,WindDirectionDegrees,WindSpeedMPH,WindSpeedGustMPH,Humidity,HourlyPrecipIn,Conditions,Clouds,dailyrainin,SolarRadiationWatts/m^2,SoftwareType,DateUTC
2013-04-20 00:00:00,43.6,36.2,30.20,NNE,14,5.0,9.0,75,0.00,,,0.00,0,Wunderground v.1.15,2013-04-20 07:00:00,
2013-04-20 00:09:00,43.6,36.2,30.20,North,355,4.0,4.0,75,0.00,,,0.00,0,Wunderground v.1.15,2013-04-20 07:09:00,
2013-04-20 00:14:00,43.6,36.2,30.20,North,355,1.0,4.0,75,0.00,,,0.00,0,Wunderground v.1.15,2013-04-20 07:14:00,
2013-04-20 00:19:00,43.5,36.1,30.20,North,355,0.0,0.0,75,0.00,,,0.00,0,Wunderground v.1.15,2013-04-20 07:19:00,
2013-04-20 00:24:00,43.4,36.0,30.20,North,355,0.0,0.0,75,0.00,,,0.00,0,Wunderground v.1.15,2013-04-20 07:24:00,
2013-04-20 00:29:00,43.2,35.8,30.21,NNW,345,0.0,0.0,75,0.00,,,0.00,0,Wunderground v.1.15,2013-04-20 07:29:00,
2013-04-20 00:35:00,42.8,35.8,30.21,West,277,0.0,0.0,76,0.00,,,0.00,0,Wunderground v.1.15,2013-04-20 07:35:00,
2013-04-20 00:40:00,42.6,35.6,30.21,West,277,0.0,0.0,76,0.00,,,0.00,0,Wunderground v.1.15,2013-04-20 07:40:00,
2013-04-20 00:45:00,42.4,35.0,30.21,West,277,0.0,0.0,75,0.00,,,0.00,0,Wunderground v.1.15,2013-04-20 07:45:00,
2013-04-20 00:50:00,42.2,35.2,30.21,WNW,297,0.0,0.0,76,0.00,,,0.00,0,Wunderground v.1.15,2013-04-20 07:50:00,
2013-04-20 00:55:00,42.4,35.7,30.22,WNW,299,0.0,0.0,77,0.00,,,0.00,0,Wunderground v.1.15,2013-04-20 07:55:00,
2013-04-20 01:00:00,42.7,35.7,30.21,WNW,299,0.0,0.0,76,0.00,,,0.00,0,Wunderground v.1.15,2013-04-20 08:00:00,
2013-04-20 01:10:00,42.9,35.5,30.22,WNW,299,0.0,0.0,75,0.00,,,0.00,0,Wunderground v.1.15,2013-04-20 08:10:00,
2013-04-20 01:15:00,42.8,35.4,30.22,WNW,299,0.0,0.0,75,0.00,,,0.00,0,Wunderground v.1.15,2013-04-20 08:15:00,
2013-04-20 01:20:00,42.6,35.2,30.22,WNW,299,0.0,0.0,75,0.00,,,0.00,0,Wunderground v.1.15,2013-04-20 08:20:00,
2013-04-20 01:25:00,42.3,34.9,30.22,WNW,299,0.0,0.0,75,0.00,,,0.00,0,Wunderground v.1.15,2013-04-20 08:25:00,
2013-04-20 01:30:00,42.1,35.1,30.22,WNW,299,0.0,0.0,76,0.00,,,0.00,0,Wunderground v.1.15,2013-04-20 08:30:00,
2013-04-20 01:40:00,42.2,35.2,30.21,WNW,299,0.0,0.0,76,0.00,,,0.00,0,Wunderground v.1.15,2013-04-20 08:40:00,
2013-04-20 01:45:00,42.2,34.8,30.21,WNW,299,0.0,0.0,75,0.00,,,0.00,0,Wunderground v.1.15,2013-04-20 08:45:00,
2013-04-20 01:50:00,41.7,34.7,30.21,WNW,290,0.0,0.0,76,0.00,,,0.00,0,Wunderground v.1.15,2013-04-20 08:50:00,
2013-04-20 01:55:00,41.3,33.6,30.21,WNW,290,1.0,1.0,74,0.00,,,0.00,0,Wunderground v.1.15,2013-04-20 08:55:00,
2013-04-20 02:00:00,40.7,33.7,30.21,WNW,290,0.0,0.0,76,0.00,,,0.00,0,Wunderground v.1.15,2013-04-20 09:00:00,
2013-04-20 02:10:00,40.3,34.3,30.21,WNW,291,0.0,0.0,79,0.00,,,0.00,0,Wunderground v.1.15,2013-04-20 09:10:00,
2013-04-20 02:15:00,40.4,34.4,30.20,WNW,291,0.0,0.0,79,0.00,,,0.00,0,Wunderground v.1.15,2013-04-20 09:15:00,
2013-04-20 02:20:00,40.5,34.5,30.21,WNW,291,0.0,0.0,79,0.00,,,0.00,0,Wunderground v.1.15,2013-04-20 09:20:00,
2013-04-20 02:25:00,40.6,34.3,30.21,WNW,291,0.0,0.0,78,0.00,,,0.00,0,Wunderground v.1.15,2013-04-20 09:25:00,
2013-04-20 02:30:00,40.6,34.3,30.21,WNW,291,0.0,0.0,78,0.00,,,0.00,0,Wunderground v.1.15,2013-04-20 09:30:00,
2013-04-20 02:35:00,40.2,33.2,30.21,WNW,291,0.0,0.0,76,0.00,,,0.00,0,Wunderground v.1.15,2013-04-20 09:35:00,
2013-04-20 02:45:00,39.5,33.2,30.21,WNW,290,0.0,0.0,78,0.00,,,0.00,0,Wunderground v.1.15,2013-04-20 09:45:00,
2013-04-20 02:50:00,39.1,33.1,30.21,WNW,290,0.0,0.0,79,0.00,,,0.00,0,Wunderground v.1.15,2013-04-20 09:50:00,
2013-04-20 02:55:00,38.8,33.5,30.21,WNW,290,0.0,0.0,81,0.00,,,0.00,0,Wunderground v.1.15,2013-04-20 09:55:00,
2013-04-20 03:00:00,38.7,33.4,30.21,WNW,290,0.0,0.0,81,0.00,,,0.00,0,Wunderground v.1.15,2013-04-20 10:00:00,
2013-04-20 03:10:00,38.3,33.0,30.22,WNW,290,0.0,0.0,81,0.00,,,0.00,0,Wunderground v.1.15,2013-04-20 10:10:00,
2013-04-20 03:19:00,38.0,33.0,30.22,WNW,290,0.0,0.0,82,0.00,,,0.00,0,Wunderground v.1.15,2013-04-20 10:19:00,
2013-04-20 03:24:00,38.0,33.3,30.22,WNW,290,0.0,0.0,83,0.00,,,0.00,0,Wunderground v.1.15,2013-04-20 10:24:00,
2013-04-20 03:29:00,38.1,33.4,30.21,WNW,290,0.0,0.0,83,0.00,,,0.00,0,Wunderground v.1.15,2013-04-20 10:29:00,
2013-04-20 03:34:00,38.2,33.5,30.22,WNW,290,0.0,0.0,83,0.00,,,0.00,0,Wunderground v.1.15,2013-04-20 10:34:00,
2013-04-20 03:39:00,38.4,33.4,30.21,WNW,290,0.0,0.0,82,0.00,,,0.00,0,Wunderground v.1.15,2013-04-20 10:39:00,
2013-04-20 03:49:00,37.7,32.7,30.21,WNW,290,1.0,1.0,82,0.00,,,0.00,0,Wunderground v.1.15,2013-04-20 10:49:00,
2013-04-20 03:54:00,37.5,33.1,30.22,WNW,290,0.0,1.0,84,0.00,,,0.00,0,Wunderground v.1.15,2013-04-20 10:54:00,
2013-04-20 04:00:00,37.6,33.2,30.22,WNW,290,0.0,0.0,84,0.00,,,0.00,0,Wunderground v.1.15,2013-04-20 11:00:00,
2013-04-20 04:09:00,38.1,33.4,30.22,WNW,290,0.0,0.0,83,0.00,,,0.00,0,Wunderground v.1.15,2013-04-20 11:09:00,
2013-04-20 04:14:00,38.3,33.6,30.22,WNW,290,0.0,0.0,83,0.00,,,0.00,0,Wunderground v.1.15,2013-04-20 11:14:00,
2013-04-20 04:24:00,38.6,33.6,30.21,WNW,290,0.0,0.0,82,0.00,,,0.00,0,Wunderground v.1.15,2013-04-20 11:24:00,
2013-04-20 04:29:00,38.6,33.0,30.21,WNW,290,0.0,0.0,80,0.00,,,0.00,0,Wunderground v.1.15,2013-04-20 11:29:00,
2013-04-20 04:34:00,38.3,32.7,30.22,WNW,290,0.0,0.0,80,0.00,,,0.00,0,Wunderground v.1.15,2013-04-20 11:34:00,
2013-04-20 04:39:00,38.0,32.7,30.22,WNW,291,0.0,0.0,81,0.00,,,0.00,0,Wunderground v.1.15,2013-04-20 11:39:00,
2013-04-20 04:44:00,37.9,32.3,30.22,WNW,291,0.0,0.0,80,0.00,,,0.00,0,Wunderground v.1.15,2013-04-20 11:44:00,
2013-04-20 04:50:00,37.9,32.6,30.22,WNW,291,0.0,0.0,81,0.00,,,0.00,0,Wunderground v.1.15,2013-04-20 11:50:00,
2013-04-20 05:00:00,38.0,33.0,30.22,WNW,291,0.0,0.0,82,0.00,,,0.00,0,Wunderground v.1.15,2013-04-20 12:00:00,
2013-04-20 05:09:00,38.4,33.1,30.22,WNW,291,0.0,0.0,81,0.00,,,0.00,0,Wunderground v.1.15,2013-04-20 12:09:00,
2013-04-20 05:14:00,38.4,32.8,30.22,WNW,290,0.0,0.0,80,0.00,,,0.00,0,Wunderground v.1.15,2013-04-20 12:14:00,
2013-04-20 05:19:00,38.5,33.2,30.22,WNW,290,0.0,0.0,81,0.00,,,0.00,0,Wunderground v.1.15,2013-04-20 12:19:00,
2013-04-20 05:25:00,38.4,32.8,30.23,WNW,290,0.0,0.0,80,0.00,,,0.00,0,Wunderground v.1.15,2013-04-20 12:25:00,
2013-04-20 05:30:00,38.3,33.0,30.23,WNW,290,0.0,0.0,81,0.00,,,0.00,0,Wunderground v.1.15,2013-04-20 12:30:00,
2013-04-20 05:35:00,38.2,32.9,30.23,WNW,290,0.0,0.0,81,0.00,,,0.00,0,Wunderground v.1.15,2013-04-20 12:35:00,
2013-04-20 05:40:00,38.0,32.7,30.22,WNW,290,0.0,0.0,81,0.00,,,0.00,0,Wunderground v.1.15,2013-04-20 12:40:00,
2013-04-20 05:45:00,37.8,32.5,30.22,WNW,290,0.0,0.0,81,0.00,,,0.00,0,Wunderground v.1.15,2013-04-20 12:45:00,
2013-04-20 05:50:00,37.7,32.4,30.23,WNW,290,0.0,2.0,81,0.00,,,0.00,0,Wunderground v.1.15,2013-04-20 12:50:00,
2013-04-20 06:00:00,37.9,32.9,30.22,WNW,290,0.0,0.0,82,0.00,,,0.00,0,Wunderground v.1.15,2013-04-20 13:00:00,
2013-04-20 06:10:00,37.9,32.3,30.22,WNW,290,0.0,0.0,80,0.00,,,0.00,0,Wunderground v.1.15,2013-04-20 13:10:00,
2013-04-20 06:15:00,37.5,31.9,30.22,WNW,290,0.0,0.0,80,0.00,,,0.00,0,Wunderground v.1.15,2013-04-20 13:15:00,
2013-04-20 06:20:00,37.2,31.9,30.23,WNW,290,0.0,0.0,81,0.00,,,0.00,5,Wunderground v.1.15,2013-04-20 13:20:00,
2013-04-20 06:30:00,36.7,31.7,30.23,WNW,290,2.0,3.0,82,0.00,,,0.00,14,Wunderground v.1.15,2013-04-20 13:30:00,
2013-04-20 06:35:00,36.5,32.1,30.23,NNW,341,3.0,8.0,84,0.00,,,0.00,23,Wunderground v.1.15,2013-04-20 13:35:00,
2013-04-20 06:40:00,37.6,33.5,30.23,North,355,5.0,7.0,85,0.00,,,0.00,32,Wunderground v.1.15,2013-04-20 13:40:00,
2013-04-20 06:45:00,39.3,34.3,30.23,North,355,6.0,7.0,82,0.00,,,0.00,40,Wunderground v.1.15,2013-04-20 13:45:00,
2013-04-20 06:50:00,40.3,34.6,30.23,North,350,5.0,5.0,80,0.00,,,0.00,49,Wunderground v.1.15,2013-04-20 13:50:00,
2013-04-20 06:55:00,40.7,34.0,30.23,North,350,4.0,6.0,77,0.00,,,0.00,53,Wunderground v.1.15,2013-04-20 13:55:00,
2013-04-20 07:00:00,40.6,34.0,30.23,NNW,331,3.0,8.0,77,0.00,,,0.00,56,Wunderground v.1.15,2013-04-20 14:00:00,
2013-04-20 07:10:00,40.1,34.4,30.24,NNW,348,7.0,10.0,80,0.00,,,0.00,58,Wunderground v.1.15,2013-04-20 14:10:00,
2013-04-20 07:15:00,41.0,34.7,30.24,NNW,347,9.0,10.0,78,0.00,,,0.00,65,Wunderground v.1.15,2013-04-20 14:15:00,
2013-04-20 07:20:00,41.7,35.0,30.24,North,355,9.0,9.0,77,0.00,,,0.00,77,Wunderground v.1.15,2013-04-20 14:20:00,
2013-04-20 07:25:00,42.2,34.8,30.24,North,355,9.0,9.0,75,0.00,,,0.00,102,Wunderground v.1.15,2013-04-20 14:25:00,
2013-04-20 07:35:00,42.8,35.1,30.24,NNW,342,5.0,7.0,74,0.00,,,0.00,165,Wunderground v.1.15,2013-04-20 14:35:00,
2013-04-20 07:40:00,43.1,35.0,30.24,NNW,330,5.0,8.0,73,0.00,,,0.00,158,Wunderground v.1.15,2013-04-20 14:40:00,
2013-04-20 07:45:00,43.4,35.3,30.25,NNW,329,6.0,8.0,73,0.00,,,0.00,227,Wunderground v.1.15,2013-04-20 14:45:00,
2013-04-20 07:50:00,43.8,35.4,30.25,NNW,348,8.0,9.0,72,0.00,,,0.00,297,Wunderground v.1.15,2013-04-20 14:50:00,
2013-04-20 07:55:00,44.4,35.6,30.25,North,5,9.0,11.0,71,0.00,,,0.00,334,Wunderground v.1.15,2013-04-20 14:55:00,
2013-04-20 08:00:00,45.1,35.9,30.25,North,360,9.0,9.0,70,0.00,,,0.00,359,Wunderground v.1.15,2013-04-20 15:00:00,
2013-04-20 08:10:00,46.1,35.7,30.25,NNW,347,10.0,11.0,67,0.00,,,0.00,355,Wunderground v.1.15,2013-04-20 15:10:00,
2013-04-20 08:15:00,46.5,35.4,30.25,NNW,348,9.0,11.0,65,0.00,,,0.00,366,Wunderground v.1.15,2013-04-20 15:15:00,
2013-04-20 08:20:00,47.0,35.4,30.25,North,355,11.0,11.0,64,0.00,,,0.00,432,Wunderground v.1.15,2013-04-20 15:20:00,
2013-04-20 08:25:00,47.2,35.6,30.25,NNE,28,11.0,11.0,64,0.00,,,0.00,448,Wunderground v.1.15,2013-04-20 15:25:00,
2013-04-20 08:30:00,47.5,35.5,30.25,NNE,12,11.0,11.0,63,0.00,,,0.00,497,Wunderground v.1.15,2013-04-20 15:30:00,
2013-04-20 08:39:00,48.2,35.8,30.25,North,355,9.0,12.0,62,0.00,,,0.00,513,Wunderground v.1.15,2013-04-20 15:39:00,
2013-04-20 08:44:00,48.3,35.5,30.25,NE,40,9.0,12.0,61,0.00,,,0.00,487,Wunderground v.1.15,2013-04-20 15:44:00,
2013-04-20 08:49:00,48.7,35.0,30.25,NNE,17,8.0,10.0,59,0.00,,,0.00,524,Wunderground v.1.15,2013-04-20 15:49:00,
2013-04-20 08:54:00,49.0,35.3,30.25,NE,35,9.0,12.0,59,0.00,,,0.00,524,Wunderground v.1.15,2013-04-20 15:54:00,
2013-04-20 09:00:00,49.0,34.9,30.25,NNE,27,11.0,11.0,58,0.00,,,0.00,526,Wunderground v.1.15,2013-04-20 16:00:00,
2013-04-20 09:09:00,49.1,34.9,30.25,North,360,11.0,12.0,58,0.00,,,0.00,552,Wunderground v.1.15,2013-04-20 16:09:00,
2013-04-20 09:14:00,48.9,34.8,30.25,NNE,26,12.0,16.0,58,0.00,,,0.00,564,Wunderground v.1.15,2013-04-20 16:14:00,
2013-04-20 09:19:00,49.1,34.9,30.25,North,11,11.0,13.0,58,0.00,,,0.00,577,Wunderground v.1.15,2013-04-20 16:19:00,
2013-04-20 09:24:00,49.2,34.6,30.25,NNE,25,11.0,13.0,57,0.00,,,0.00,591,Wunderground v.1.15,2013-04-20 16:24:00,
2013-04-20 09:29:00,49.2,35.0,30.25,NNE,19,10.0,10.0,58,0.00,,,0.00,605,Wunderground v.1.15,2013-04-20 16:29:00,
2013-04-20 09:34:00,49.4,34.3,30.24,NNE,18,10.0,10.0,56,0.00,,,0.00,619,Wunderground v.1.15,2013-04-20 16:34:00,
2013-04-20 09:44:00,50.0,34.9,30.24,NE,38,11.0,12.0,56,0.00,,,0.00,642,Wunderground v.1.15,2013-04-20 16:44:00,
2013-04-20 09:49:00,50.0,34.9,30.24,North,5,11.0,11.0,56,0.00,,,0.00,654,Wunderground v.1.15,2013-04-20 16:49:00,
2013-04-20 09:54:00,50.2,35.1,30.24,NNE,19,11.0,17.0,56,0.00,,,0.00,670,Wunderground v.1.15,2013-04-20 16:54:00,
2013-04-20 10:00:00,50.5,34.5,30.24,North,9,13.0,15.0,54,0.00,,,0.00,661,Wunderground v.1.15,2013-04-20 17:00:00,
2013-04-20 10:09:00,50.4,34.4,30.23,NE,34,14.0,14.0,54,0.00,,,0.00,714,Wunderground v.1.15,2013-04-20 17:09:00,
2013-04-20 10:19:00,50.9,34.8,30.23,NNE,17,12.0,12.0,54,0.00,,,0.00,698,Wunderground v.1.15,2013-04-20 17:19:00,
2013-04-20 10:24:00,50.9,34.8,30.24,NNE,26,12.0,12.0,54,0.00,,,0.00,742,Wunderground v.1.15,2013-04-20 17:24:00,
2013-04-20 10:29:00,51.5,35.4,30.24,North,5,9.0,9.0,54,0.00,,,0.00,754,Wunderground v.1.15,2013-04-20 17:29:00,
2013-04-20 10:34:00,51.8,35.2,30.24,North,355,8.0,9.0,53,0.00,,,0.00,766,Wunderground v.1.15,2013-04-20 17:34:00,
2013-04-20 10:39:00,51.8,35.2,30.24,North,5,10.0,10.0,53,0.00,,,0.00,777,Wunderground v.1.15,2013-04-20 17:39:00,
2013-04-20 10:45:00,51.9,35.3,30.24,North,11,11.0,12.0,53,0.00,,,0.00,788,Wunderground v.1.15,2013-04-20 17:45:00,
2013-04-20 10:50:00,51.9,35.3,30.24,North,355,10.0,10.0,53,0.00,,,0.00,800,Wunderground v.1.15,2013-04-20 17:50:00,
2013-04-20 10:55:00,51.8,35.2,30.24,North,5,11.0,11.0,53,0.00,,,0.00,810,Wunderground v.1.15,2013-04-20 17:55:00,
2013-04-20 11:00:00,51.8,35.7,30.24,North,355,10.0,13.0,54,0.00,,,0.00,809,Wunderground v.1.15,2013-04-20 18:00:00,
2013-04-20 11:10:00,52.3,35.7,30.24,North,355,11.0,16.0,53,0.00,,,0.00,840,Wunderground v.1.15,2013-04-20 18:10:00,
2013-04-20 11:20:00,52.5,35.4,30.24,NNE,32,12.0,13.0,52,0.00,,,0.00,856,Wunderground v.1.15,2013-04-20 18:20:00,
2013-04-20 11:25:00,52.8,35.6,30.24,North,5,11.0,13.0,52,0.00,,,0.00,865,Wunderground v.1.15,2013-04-20 18:25:00,
2013-04-20 11:30:00,53.3,34.6,30.24,North,355,11.0,12.0,49,0.00,,,0.00,877,Wunderground v.1.15,2013-04-20 18:30:00,
2013-04-20 11:35:00,53.9,34.6,30.24,North,350,10.0,12.0,48,0.00,,,0.00,886,Wunderground v.1.15,2013-04-20 18:35:00,
2013-04-20 11:40:00,53.6,34.9,30.23,North,350,10.0,11.0,49,0.00,,,0.00,895,Wunderground v.1.15,2013-04-20 18:40:00,
2013-04-20 11:45:00,53.7,33.9,30.24,NNE,26,11.0,11.0,47,0.00,,,0.00,900,Wunderground v.1.15,2013-04-20 18:45:00,
2013-04-20 11:55:00,54.6,34.2,30.23,North,5,9.0,10.0,46,0.00,,,0.00,912,Wunderground v.1.15,2013-04-20 18:55:00,
2013-04-20 12:00:00,54.5,34.7,30.23,NNE,20,10.0,10.0,47,0.00,,,0.00,916,Wunderground v.1.15,2013-04-20 19:00:00,
2013-04-20 12:10:00,54.5,34.1,30.23,NNW,342,8.0,8.0,46,0.00,,,0.00,919,Wunderground v.1.15,2013-04-20 19:10:00,
2013-04-20 12:15:00,54.9,33.9,30.23,North,360,8.0,14.0,45,0.00,,,0.00,928,Wunderground v.1.15,2013-04-20 19:15:00,
2013-04-20 12:25:00,54.5,33.6,30.23,North,360,10.0,13.0,45,0.00,,,0.00,935,Wunderground v.1.15,2013-04-20 19:25:00,
2013-04-20 12:30:00,54.0,33.1,30.23,North,355,10.0,10.0,45,0.00,,,0.00,926,Wunderground v.1.15,2013-04-20 19:30:00,
2013-04-20 12:35:00,54.0,33.7,30.23,NW,323,10.0,17.0,46,0.00,,,0.00,911,Wunderground v.1.15,2013-04-20 19:35:00,
2013-04-20 12:40:00,54.2,32.7,30.23,NNE,19,10.0,10.0,44,0.00,,,0.00,933,Wunderground v.1.15,2013-04-20 19:40:00,
2013-04-20 12:45:00,54.5,33.0,30.22,NNW,327,8.0,10.0,44,0.00,,,0.00,939,Wunderground v.1.15,2013-04-20 19:45:00,
2013-04-20 12:50:00,55.0,32.9,30.23,North,9,6.0,6.0,43,0.00,,,0.00,946,Wunderground v.1.15,2013-04-20 19:50:00,
2013-04-20 13:00:00,55.5,32.8,30.22,NNW,342,5.0,10.0,42,0.00,,,0.00,918,Wunderground v.1.15,2013-04-20 20:00:00,
2013-04-20 13:10:00,56.3,33.5,30.21,North,355,5.0,12.0,42,0.00,,,0.00,979,Wunderground v.1.15,2013-04-20 20:10:00,
2013-04-20 13:15:00,56.3,33.5,30.21,SE,127,4.0,12.0,42,0.00,,,0.00,1005,Wunderground v.1.15,2013-04-20 20:15:00,
2013-04-20 13:20:00,56.6,33.8,30.21,North,5,5.0,6.0,42,0.00,,,0.00,1002,Wunderground v.1.15,2013-04-20 20:20:00,
2013-04-20 13:29:00,57.5,33.3,30.21,NNE,24,6.0,7.0,40,0.00,,,0.00,953,Wunderground v.1.15,2013-04-20 20:29:00,
2013-04-20 13:34:00,57.7,32.9,30.21,North,355,7.0,9.0,39,0.00,,,0.00,925,Wunderground v.1.15,2013-04-20 20:34:00,
2013-04-20 13:39:00,57.7,32.9,30.21,NNE,30,4.0,8.0,39,0.00,,,0.00,954,Wunderground v.1.15,2013-04-20 20:39:00,
2013-04-20 13:44:00,58.0,34.4,30.20,ENE,63,6.0,8.0,41,0.00,,,0.00,870,Wunderground v.1.15,2013-04-20 20:44:00,
2013-04-20 13:49:00,58.2,33.3,30.20,NNE,24,8.0,13.0,39,0.00,,,0.00,777,Wunderground v.1.15,2013-04-20 20:49:00,
2013-04-20 13:54:00,58.0,33.8,30.20,NE,39,9.0,13.0,40,0.00,,,0.00,742,Wunderground v.1.15,2013-04-20 20:54:00,
2013-04-20 14:00:00,57.7,34.1,30.20,North,355,10.0,10.0,41,0.00,,,0.00,772,Wunderground v.1.15,2013-04-20 21:00:00,
2013-04-20 14:09:00,57.5,34.0,30.20,North,355,9.0,15.0,41,0.00,,,0.00,643,Wunderground v.1.15,2013-04-20 21:09:00,
2013-04-20 14:14:00,56.9,34.6,30.20,NNE,24,9.0,15.0,43,0.00,,,0.00,703,Wunderground v.1.15,2013-04-20 21:14:00,
2013-04-20 14:19:00,57.1,34.8,30.20,NE,43,7.0,9.0,43,0.00,,,0.00,663,Wunderground v.1.15,2013-04-20 21:19:00,
2013-04-20 14:24:00,57.3,33.8,30.20,NE,51,6.0,9.0,41,0.00,,,0.00,538,Wunderground v.1.15,2013-04-20 21:24:00,
2013-04-20 14:34:00,57.1,34.2,30.20,North,360,8.0,11.0,42,0.00,,,0.00,809,Wunderground v.1.15,2013-04-20 21:34:00,
2013-04-20 14:39:00,57.2,34.3,30.20,NNE,13,8.0,8.0,42,0.00,,,0.00,837,Wunderground v.1.15,2013-04-20 21:39:00,
2013-04-20 14:44:00,57.6,35.8,30.20,NE,49,7.0,8.0,44,0.00,,,0.00,833,Wunderground v.1.15,2013-04-20 21:44:00,
2013-04-20 14:49:00,57.8,35.4,30.19,North,5,7.0,11.0,43,0.00,,,0.00,805,Wunderground v.1.15,2013-04-20 21:49:00,
2013-04-20 14:54:00,57.9,34.9,30.19,ENE,58,7.0,11.0,42,0.00,,,0.00,766,Wunderground v.1.15,2013-04-20 21:54:00,
2013-04-20 15:00:00,58.4,34.8,30.19,NNE,18,7.0,10.0,41,0.00,,,0.00,758,Wunderground v.1.15,2013-04-20 22:00:00,
2013-04-20 15:09:00,58.0,34.4,30.19,ENE,67,8.0,8.0,41,0.00,,,0.00,802,Wunderground v.1.15,2013-04-20 22:09:00,
2013-04-20 15:14:00,57.1,34.2,30.19,North,355,6.0,8.0,42,0.00,,,0.00,786,Wunderground v.1.15,2013-04-20 22:14:00,
2013-04-20 15:19:00,57.5,34.6,30.19,ENE,58,5.0,5.0,42,0.00,,,0.00,782,Wunderground v.1.15,2013-04-20 22:19:00,
2013-04-20 15:24:00,58.0,34.4,30.18,ESE,105,4.0,5.0,41,0.00,,,0.00,768,Wunderground v.1.15,2013-04-20 22:24:00,
2013-04-20 15:29:00,58.5,34.9,30.18,ENE,69,3.0,3.0,41,0.00,,,0.00,745,Wunderground v.1.15,2013-04-20 22:29:00,
2013-04-20 15:35:00,58.8,35.1,30.19,NE,37,2.0,3.0,41,0.00,,,0.00,745,Wunderground v.1.15,2013-04-20 22:35:00,
2013-04-20 15:40:00,58.9,35.2,30.18,NNE,15,1.0,1.0,41,0.00,,,0.00,731,Wunderground v.1.15,2013-04-20 22:40:00,
2013-04-20 15:45:00,58.8,34.5,30.18,East,93,2.0,2.0,40,0.00,,,0.00,721,Wunderground v.1.15,2013-04-20 22:45:00,
2013-04-20 15:50:00,58.2,34.0,30.18,ENE,62,2.0,2.0,40,0.00,,,0.00,705,Wunderground v.1.15,2013-04-20 22:50:00,
2013-04-20 15:55:00,58.9,34.0,30.18,ENE,65,3.0,4.0,39,0.00,,,0.00,689,Wunderground v.1.15,2013-04-20 22:55:00,
2013-04-20 16:00:00,58.3,32.1,30.18,ESE,116,3.0,3.0,37,0.00,,,0.00,675,Wunderground v.1.15,2013-04-20 23:00:00,
2013-04-20 16:10:00,58.6,34.3,30.18,ESE,115,2.0,2.0,40,0.00,,,0.00,654,Wunderground v.1.15,2013-04-20 23:10:00,
2013-04-20 16:15:00,58.8,35.1,30.18,North,5,2.0,2.0,41,0.00,,,0.00,638,Wunderground v.1.15,2013-04-20 23:15:00,
2013-04-20 16:20:00,59.1,35.4,30.18,North,360,3.0,5.0,41,0.00,,,0.00,624,Wunderground v.1.15,2013-04-20 23:20:00,
2013-04-20 16:25:00,59.2,35.5,30.18,North,5,5.0,8.0,41,0.00,,,0.00,670,Wunderground v.1.15,2013-04-20 23:25:00,
2013-04-20 16:30:00,59.4,35.7,30.18,NNE,33,5.0,5.0,41,0.00,,,0.00,619,Wunderground v.1.15,2013-04-20 23:30:00,
2013-04-20 16:35:00,59.5,35.8,30.18,NNE,24,5.0,9.0,41,0.00,,,0.00,591,Wunderground v.1.15,2013-04-20 23:35:00,
2013-04-20 16:45:00,59.4,35.7,30.18,NE,42,5.0,6.0,41,0.00,,,0.00,568,Wunderground v.1.15,2013-04-20 23:45:00,
2013-04-20 16:50:00,59.7,35.3,30.18,NE,42,5.0,5.0,40,0.00,,,0.00,547,Wunderground v.1.15,2013-04-20 23:50:00,
2013-04-20 16:55:00,58.7,34.4,30.18,North,9,5.0,5.0,40,0.00,,,0.00,524,Wunderground v.1.15,2013-04-20 23:55:00,
2013-04-20 17:00:00,58.8,35.1,30.18,North,355,6.0,9.0,41,0.00,,,0.00,504,Wunderground v.1.15,2013-04-21 00:00:00,
2013-04-20 17:10:00,58.7,34.4,30.18,ENE,73,5.0,7.0,40,0.00,,,0.00,476,Wunderground v.1.15,2013-04-21 00:10:00,
2013-04-20 17:15:00,58.4,34.2,30.18,NNE,28,4.0,7.0,40,0.00,,,0.00,459,Wunderground v.1.15,2013-04-21 00:15:00,
2013-04-20 17:20:00,58.1,33.9,30.17,ENE,59,4.0,4.0,40,0.00,,,0.00,439,Wunderground v.1.15,2013-04-21 00:20:00,
2013-04-20 17:25:00,58.3,33.4,30.17,NNE,19,4.0,6.0,39,0.00,,,0.00,422,Wunderground v.1.15,2013-04-21 00:25:00,
2013-04-20 17:30:00,58.3,33.4,30.17,NNE,30,3.0,3.0,39,0.00,,,0.00,406,Wunderground v.1.15,2013-04-21 00:30:00,
2013-04-20 17:35:00,58.9,34.0,30.17,NE,46,2.0,3.0,39,0.00,,,0.00,385,Wunderground v.1.15,2013-04-21 00:35:00,
2013-04-20 17:40:00,58.8,33.9,30.17,North,355,1.0,1.0,39,0.00,,,0.00,367,Wunderground v.1.15,2013-04-21 00:40:00,
2013-04-20 17:50:00,58.4,34.2,30.17,NNE,26,1.0,1.0,40,0.00,,,0.00,345,Wunderground v.1.15,2013-04-21 00:50:00,
2013-04-20 17:55:00,58.1,33.9,30.17,NNE,20,2.0,7.0,40,0.00,,,0.00,329,Wunderground v.1.15,2013-04-21 00:55:00,
2013-04-20 18:00:00,57.9,34.9,30.17,NNE,32,5.0,5.0,42,0.00,,,0.00,309,Wunderground v.1.15,2013-04-21 01:00:00,
2013-04-20 18:10:00,57.5,34.6,30.17,North,355,7.0,8.0,42,0.00,,,0.00,248,Wunderground v.1.15,2013-04-21 01:10:00,
2013-04-20 18:20:00,56.9,34.6,30.17,North,351,8.0,8.0,43,0.00,,,0.00,211,Wunderground v.1.15,2013-04-21 01:20:00,
2013-04-20 18:25:00,56.7,34.4,30.16,North,360,7.0,8.0,43,0.00,,,0.00,202,Wunderground v.1.15,2013-04-21 01:25:00,
2013-04-20 18:30:00,56.4,34.2,30.17,NNW,346,7.0,7.0,43,0.00,,,0.00,192,Wunderground v.1.15,2013-04-21 01:30:00,
2013-04-20 18:35:00,56.2,34.0,30.17,NNW,347,6.0,7.0,43,0.00,,,0.00,158,Wunderground v.1.15,2013-04-21 01:35:00,
2013-04-20 18:40:00,56.0,34.4,30.17,North,355,6.0,6.0,44,0.00,,,0.00,151,Wunderground v.1.15,2013-04-21 01:40:00,
2013-04-20 18:45:00,55.7,34.1,30.17,NNE,18,6.0,6.0,44,0.00,,,0.00,130,Wunderground v.1.15,2013-04-21 01:45:00,
2013-04-20 18:55:00,55.4,34.4,30.17,North,355,6.0,9.0,45,0.00,,,0.00,111,Wunderground v.1.15,2013-04-21 01:55:00,
2013-04-20 19:00:00,55.3,34.9,30.17,North,351,6.0,7.0,46,0.00,,,0.00,95,Wunderground v.1.15,2013-04-21 02:00:00,
2013-04-20 19:10:00,54.6,34.2,30.16,NNW,348,6.0,6.0,46,0.00,,,0.00,62,Wunderground v.1.15,2013-04-21 02:10:00,
2013-04-20 19:15:00,54.4,34.6,30.17,North,355,5.0,8.0,47,0.00,,,0.00,40,Wunderground v.1.15,2013-04-21 02:15:00,
2013-04-20 19:25:00,53.2,34.5,30.17,North,360,5.0,6.0,49,0.00,,,0.00,26,Wunderground v.1.15,2013-04-21 02:25:00,
2013-04-20 19:30:00,52.8,34.7,30.17,North,350,4.0,5.0,50,0.00,,,0.00,21,Wunderground v.1.15,2013-04-21 02:30:00,
2013-04-20 19:35:00,52.4,34.3,30.17,North,350,4.0,5.0,50,0.00,,,0.00,18,Wunderground v.1.15,2013-04-21 02:35:00,
2013-04-20 19:40:00,52.1,34.5,30.17,North,350,4.0,4.0,51,0.00,,,0.00,16,Wunderground v.1.15,2013-04-21 02:40:00,
2013-04-20 19:45:00,51.8,34.7,30.17,North,350,1.0,4.0,52,0.00,,,0.00,12,Wunderground v.1.15,2013-04-21 02:45:00,
2013-04-20 19:50:00,51.4,34.8,30.17,North,350,0.0,0.0,53,0.00,,,0.00,9,Wunderground v.1.15,2013-04-21 02:50:00,
2013-04-20 20:00:00,50.8,34.7,30.18,North,350,0.0,0.0,54,0.00,,,0.00,0,Wunderground v.1.15,2013-04-21 03:00:00,
2013-04-20 20:10:00,50.3,34.7,30.18,North,350,0.0,0.0,55,0.00,,,0.00,0,Wunderground v.1.15,2013-04-21 03:10:00,
2013-04-20 20:14:00,50.1,34.5,30.18,North,350,0.0,0.0,55,0.00,,,0.00,0,Wunderground v.1.15,2013-04-21 03:14:00,
2013-04-20 20:20:00,49.9,34.4,30.18,North,350,0.0,0.0,55,0.00,,,0.00,0,Wunderground v.1.15,2013-04-21 03:20:00,
2013-04-20 20:29:00,49.4,34.3,30.18,NW,322,1.0,1.0,56,0.00,,,0.00,0,Wunderground v.1.15,2013-04-21 03:29:00,
2013-04-20 20:34:00,49.2,35.0,30.19,NW,322,0.0,1.0,58,0.00,,,0.00,0,Wunderground v.1.15,2013-04-21 03:34:00,
2013-04-20 20:39:00,48.9,34.8,30.19,WNW,301,0.0,0.0,58,0.00,,,0.00,0,Wunderground v.1.15,2013-04-21 03:39:00,
2013-04-20 20:44:00,48.5,35.7,30.19,SW,225,1.0,1.0,61,0.00,,,0.00,0,Wunderground v.1.15,2013-04-21 03:44:00,
2013-04-20 20:49:00,48.4,35.6,30.19,SW,225,3.0,3.0,61,0.00,,,0.00,0,Wunderground v.1.15,2013-04-21 03:49:00,
2013-04-20 20:54:00,48.3,35.5,30.20,SW,225,2.0,3.0,61,0.00,,,0.00,0,Wunderground v.1.15,2013-04-21 03:54:00,
2013-04-20 21:00:00,48.1,35.7,30.20,SW,225,0.0,0.0,62,0.00,,,0.00,0,Wunderground v.1.15,2013-04-21 04:00:00,
2013-04-20 21:04:00,48.0,35.6,30.19,SW,225,0.0,0.0,62,0.00,,,0.00,0,Wunderground v.1.15,2013-04-21 04:04:00,
2013-04-20 21:09:00,47.9,35.5,30.20,SW,225,0.0,0.0,62,0.00,,,0.00,0,Wunderground v.1.15,2013-04-21 04:09:00,
2013-04-20 21:14:00,47.7,34.1,30.20,SW,225,0.0,0.0,59,0.00,,,0.00,0,Wunderground v.1.15,2013-04-21 04:14:00,
2013-04-20 21:19:00,47.2,34.4,30.20,SW,225,0.0,0.0,61,0.00,,,0.00,0,Wunderground v.1.15,2013-04-21 04:19:00,
2013-04-20 21:24:00,46.7,34.8,30.20,SW,225,0.0,0.0,63,0.00,,,0.00,0,Wunderground v.1.15,2013-04-21 04:24:00,
2013-04-20 21:34:00,46.0,34.9,30.21,SW,225,0.0,0.0,65,0.00,,,0.00,0,Wunderground v.1.15,2013-04-21 04:34:00,
2013-04-20 21:39:00,45.7,34.6,30.21,SW,225,0.0,0.0,65,0.00,,,0.00,0,Wunderground v.1.15,2013-04-21 04:39:00,
2013-04-20 21:44:00,45.5,35.2,30.21,SW,225,0.0,0.0,67,0.00,,,0.00,0,Wunderground v.1.15,2013-04-21 04:44:00,
2013-04-20 21:49:00,45.3,34.2,30.21,SW,225,0.0,0.0,65,0.00,,,0.00,0,Wunderground v.1.15,2013-04-21 04:49:00,
2013-04-20 21:54:00,45.3,35.0,30.21,SW,225,0.0,0.0,67,0.00,,,0.00,0,Wunderground v.1.15,2013-04-21 04:54:00,
2013-04-20 22:00:00,45.1,34.8,30.21,SW,225,0.0,0.0,67,0.00,,,0.00,0,Wunderground v.1.15,2013-04-21 05:00:00,
2013-04-20 22:05:00,44.9,34.6,30.21,SW,225,0.0,0.0,67,0.00,,,0.00,0,Wunderground v.1.15,2013-04-21 05:05:00,
2013-04-20 22:10:00,44.6,34.3,30.21,SW,225,0.0,0.0,67,0.00,,,0.00,0,Wunderground v.1.15,2013-04-21 05:10:00,
2013-04-20 22:15:00,44.5,34.6,30.20,SW,225,0.0,0.0,68,0.00,,,0.00,0,Wunderground v.1.15,2013-04-21 05:15:00,
2013-04-20 22:20:00,44.4,34.5,30.20,SW,225,0.0,0.0,68,0.00,,,0.00,0,Wunderground v.1.15,2013-04-21 05:20:00,
2013-04-20 22:25:00,44.2,34.3,30.20,SW,225,0.0,0.0,68,0.00,,,0.00,0,Wunderground v.1.15,2013-04-21 05:25:00,
2013-04-20 22:30:00,43.9,34.4,30.20,SW,227,0.0,4.0,69,0.00,,,0.00,0,Wunderground v.1.15,2013-04-21 05:30:00,
2013-04-20 22:40:00,44.0,34.8,30.20,SW,223,4.0,4.0,70,0.00,,,0.00,0,Wunderground v.1.15,2013-04-21 05:40:00,
2013-04-20 22:45:00,44.1,34.2,30.20,SW,223,2.0,4.0,68,0.00,,,0.00,0,Wunderground v.1.15,2013-04-21 05:45:00,
2013-04-20 22:50:00,44.0,34.5,30.20,SW,222,0.0,0.0,69,0.00,,,0.00,0,Wunderground v.1.15,2013-04-21 05:50:00,
2013-04-20 22:55:00,43.9,34.7,30.20,SW,223,0.0,0.0,70,0.00,,,0.00,0,Wunderground v.1.15,2013-04-21 05:55:00,
2013-04-20 23:00:00,43.7,34.6,30.20,SW,222,0.0,0.0,70,0.00,,,0.00,0,Wunderground v.1.15,2013-04-21 06:00:00,
2013-04-20 23:10:00,43.2,34.4,30.20,SW,222,0.0,0.0,71,0.00,,,0.00,0,Wunderground v.1.15,2013-04-21 06:10:00,
2013-04-20 23:15:00,42.8,34.0,30.20,SW,222,0.0,0.0,71,0.00,,,0.00,0,Wunderground v.1.15,2013-04-21 06:15:00,
2013-04-20 23:20:00,42.6,34.2,30.20,SW,222,0.0,0.0,72,0.00,,,0.00,0,Wunderground v.1.15,2013-04-21 06:20:00,
2013-04-20 23:25:00,42.8,34.4,30.20,SW,221,0.0,0.0,72,0.00,,,0.00,0,Wunderground v.1.15,2013-04-21 06:25:00,
2013-04-20 23:30:00,42.8,34.4,30.20,SW,221,0.0,0.0,72,0.00,,,0.00,0,Wunderground v.1.15,2013-04-21 06:30:00,
2013-04-20 23:35:00,42.8,34.4,30.20,SW,221,0.0,0.0,72,0.00,,,0.00,0,Wunderground v.1.15,2013-04-21 06:35:00,
2013-04-20 23:45:00,42.8,34.0,30.19,SW,221,0.0,0.0,71,0.00,,,0.00,0,Wunderground v.1.15,2013-04-21 06:45:00,
2013-04-20 23:50:00,42.7,34.3,30.19,SW,221,0.0,0.0,72,0.00,,,0.00,0,Wunderground v.1.15,2013-04-21 06:50:00,
2013-04-20 23:55:00,42.4,34.0,30.19,SW,221,0.0,0.0,72,0.00,,,0.00,0,Wunderground v.1.15,2013-04-21 06:55:00,